Time;durP1;ratioP1;P1;durP2;ratioP2;P2;SDS_P1;SDS_P2;PMS_P1;PMS_P2;Temp;Humidity;BMP_temperature;BMP_pressure;BME280_temperature;BME280_humidity;BME280_pressure;Samples;Min_cycle;Max_cycle;Signal;HPM_P1;HPM_P2
2021/04/16 00:01:41;;;;;;;;;7.67;6.33;;;;;;;;3558574;39;114304;-71
2021/04/16 00:04:08;;;;;;;;;13.33;8.33;;;;;;;;3558817;39;111913;-70
2021/04/16 00:06:34;;;;;;;;;6.00;5.67;;;;;;;;3559407;39;113331;-70
2021/04/16 00:09:00;;;;;;;;;7.33;7.33;;;;;;;;3558051;39;113863;-70
2021/04/16 00:11:27;;;;;;;;;8.67;8.00;;;;;;;;3559960;39;111787;-70
2021/04/16 00:13:53;;;;;;;;;6.00;6.00;;;;;;;;3558301;39;113538;-70
2021/04/16 00:16:20;;;;;;;;;7.67;7.33;;;;;;;;3559191;39;113838;-70
2021/04/16 00:18:47;;;;;;;;;8.67;7.33;;;;;;;;3561285;39;111914;-70
2021/04/16 00:21:13;;;;;;;;;9.67;8.33;;;;;;;;3558813;39;113939;-70
2021/04/16 00:23:40;;;;;;;;;6.67;6.67;;;;;;;;3558944;39;112029;-69
2021/04/16 00:26:06;;;;;;;;;9.67;8.67;;;;;;;;3558748;39;113419;-69
2021/04/16 00:28:33;;;;;;;;;11.67;8.33;;;;;;;;3555589;39;113091;-69
2021/04/16 00:31:00;;;;;;;;;10.33;8.33;;;;;;;;3557991;39;112187;-70
2021/04/16 00:33:26;;;;;;;;;8.00;8.00;;;;;;;;3559868;39;113295;-70
2021/04/16 00:35:52;;;;;;;;;11.67;9.00;;;;;;;;3557661;39;114850;-70
2021/04/16 00:38:21;;;;;;;;;8.00;8.00;;;;;;;;3558943;39;111984;-71
2021/04/16 00:40:48;;;;;;;;;9.00;8.00;;;;;;;;3560701;39;113131;-70
2021/04/16 00:43:16;;;;;;;;;10.00;8.00;;;;;;;;3559223;39;111931;-69
2021/04/16 00:45:42;;;;;;;;;8.33;8.33;;;;;;;;3558895;39;113208;-70
2021/04/16 00:48:11;;;;;;;;;8.00;8.00;;;;;;;;3558353;39;113833;-70
2021/04/16 00:50:41;;;;;;;;;9.00;7.33;;;;;;;;3559160;39;111917;-70
2021/04/16 00:53:07;;;;;;;;;11.00;7.33;;;;;;;;3558556;39;113316;-70
2021/04/16 00:55:34;;;;;;;;;9.00;8.00;;;;;;;;3559045;39;113957;-70
2021/04/16 00:58:00;;;;;;;;;7.00;5.00;;;;;;;;3558171;39;112438;-70
2021/04/16 01:00:27;;;;;;;;;9.00;7.00;;;;;;;;3559879;39;113255;-70
2021/04/16 01:02:53;;;;;;;;;8.33;8.00;;;;;;;;3560259;39;113869;-70
2021/04/16 01:05:19;;;;;;;;;5.00;5.00;;;;;;;;3559481;39;113191;-71
2021/04/16 01:07:45;;;;;;;;;7.00;7.00;;;;;;;;3557872;39;113901;-70
2021/04/16 01:10:13;;;;;;;;;5.00;5.00;;;;;;;;3558796;39;112273;-71
2021/04/16 01:12:40;;;;;;;;;8.00;8.00;;;;;;;;3558862;39;113116;-70
2021/04/16 01:15:15;;;;;;;;;7.67;7.67;;;;;;;;3557950;39;115110;-71
2021/04/16 01:17:42;;;;;;;;;5.00;5.00;;;;;;;;3558683;39;111743;-70
2021/04/16 01:20:10;;;;;;;;;8.00;7.33;;;;;;;;3556446;39;114208;-70
2021/04/16 01:22:37;;;;;;;;;8.00;6.33;;;;;;;;3558518;39;113801;-70
2021/04/16 01:25:05;;;;;;;;;5.00;4.00;;;;;;;;3560556;39;113723;-70
2021/04/16 01:27:32;;;;;;;;;9.00;7.33;;;;;;;;3557391;39;114139;-70
2021/04/16 01:30:02;;;;;;;;;10.33;5.33;;;;;;;;3559380;39;112334;-71
2021/04/16 01:32:30;;;;;;;;;11.00;7.00;;;;;;;;3557607;39;113719;-70
2021/04/16 01:34:56;;;;;;;;;6.67;5.67;;;;;;;;3556422;39;114142;-69
2021/04/16 01:37:23;;;;;;;;;11.67;8.00;;;;;;;;3552901;39;111811;-70
2021/04/16 01:39:52;;;;;;;;;10.00;8.00;;;;;;;;3553371;39;113626;-69
2021/04/16 01:42:19;;;;;;;;;5.00;5.00;;;;;;;;3553808;39;113965;-69
2021/04/16 01:44:46;;;;;;;;;5.67;5.00;;;;;;;;3553461;39;112247;-69
2021/04/16 01:47:14;;;;;;;;;7.33;5.67;;;;;;;;3555888;39;113409;-70
2021/04/16 01:49:41;;;;;;;;;9.00;7.00;;;;;;;;3555046;39;111989;-69
2021/04/16 01:52:08;;;;;;;;;9.33;8.00;;;;;;;;3557216;39;113501;-69
2021/04/16 01:54:35;;;;;;;;;7.33;5.00;;;;;;;;3553910;39;114832;-69
2021/04/16 01:57:04;;;;;;;;;8.00;8.00;;;;;;;;3559170;39;113048;-70
2021/04/16 01:59:33;;;;;;;;;7.00;7.00;;;;;;;;3560657;39;113205;-69
2021/04/16 02:01:59;;;;;;;;;9.33;7.00;;;;;;;;3560286;39;113975;-69
2021/04/16 02:04:26;;;;;;;;;7.33;5.00;;;;;;;;3558826;39;112016;-69
2021/04/16 02:06:52;;;;;;;;;6.33;5.67;;;;;;;;3562594;39;113292;-70
2021/04/16 02:09:20;;;;;;;;;7.00;7.00;;;;;;;;3559210;39;111729;-70
2021/04/16 02:11:46;;;;;;;;;4.00;4.00;;;;;;;;3559949;39;113103;-70
2021/04/16 02:14:13;;;;;;;;;8.67;7.00;;;;;;;;3559320;39;113856;-70
2021/04/16 02:16:39;;;;;;;;;5.00;5.00;;;;;;;;3559251;39;111782;-70
2021/04/16 02:19:06;;;;;;;;;4.67;4.67;;;;;;;;3560222;39;113474;-70
2021/04/16 02:21:32;;;;;;;;;5.00;5.00;;;;;;;;3558426;39;114396;-70
2021/04/16 02:23:58;;;;;;;;;1.33;0.67;;;;;;;;3560680;39;111826;-70
2021/04/16 02:26:24;;;;;;;;;9.67;7.67;;;;;;;;3558612;39;114142;-70
2021/04/16 02:28:50;;;;;;;;;5.00;5.00;;;;;;;;3562346;39;114342;-68
2021/04/16 02:31:17;;;;;;;;;5.00;5.00;;;;;;;;3559135;39;113966;-69
2021/04/16 02:33:44;;;;;;;;;2.00;1.33;;;;;;;;3558415;39;114498;-68
2021/04/16 02:36:11;;;;;;;;;5.00;2.67;;;;;;;;3559507;39;111836;-71
2021/04/16 02:38:37;;;;;;;;;10.00;5.67;;;;;;;;3560269;39;113599;-70
2021/04/16 02:41:03;;;;;;;;;5.67;5.67;;;;;;;;3558335;39;113810;-71
2021/04/16 02:43:30;;;;;;;;;5.00;5.00;;;;;;;;3560595;39;112066;-71
2021/04/16 02:45:56;;;;;;;;;6.33;5.00;;;;;;;;3558946;39;114878;-71
2021/04/16 02:48:22;;;;;;;;;5.00;5.00;;;;;;;;3559898;39;113961;-70
2021/04/16 02:50:49;;;;;;;;;7.67;4.33;;;;;;;;3561944;39;112264;-70
2021/04/16 02:53:15;;;;;;;;;11.67;7.00;;;;;;;;3559033;39;114028;-70
2021/04/16 02:55:41;;;;;;;;;7.00;5.00;;;;;;;;3559791;39;111746;-70
2021/04/16 02:58:07;;;;;;;;;5.00;4.00;;;;;;;;3559002;39;113235;-70
2021/04/16 03:00:33;;;;;;;;;5.00;5.00;;;;;;;;3559563;39;114090;-74
2021/04/16 03:02:59;;;;;;;;;5.67;5.00;;;;;;;;3558561;39;112273;-70
2021/04/16 03:05:26;;;;;;;;;7.00;5.00;;;;;;;;3554483;39;112758;-69
2021/04/16 03:07:54;;;;;;;;;8.00;5.67;;;;;;;;3553501;39;112914;-70
2021/04/16 03:10:21;;;;;;;;;10.33;7.00;;;;;;;;3555442;39;111841;-71
2021/04/16 03:12:47;;;;;;;;;4.67;4.67;;;;;;;;3557581;39;114367;-68
2021/04/16 03:15:13;;;;;;;;;5.00;5.00;;;;;;;;3559421;39;111855;-69
2021/04/16 03:17:40;;;;;;;;;5.67;4.00;;;;;;;;3559838;39;115210;-69
2021/04/16 03:20:07;;;;;;;;;12.33;7.33;;;;;;;;3558027;39;114270;-70
2021/04/16 03:22:33;;;;;;;;;4.67;4.00;;;;;;;;3558580;39;111981;-69
2021/04/16 03:25:00;;;;;;;;;7.00;7.00;;;;;;;;3560411;39;113567;-69
2021/04/16 03:27:26;;;;;;;;;5.00;5.00;;;;;;;;3553654;39;115237;-70
2021/04/16 03:29:52;;;;;;;;;5.67;5.67;;;;;;;;3558610;39;112055;-69
2021/04/16 03:32:18;;;;;;;;;6.33;6.33;;;;;;;;3559676;39;113282;-68
2021/04/16 03:34:44;;;;;;;;;4.67;4.67;;;;;;;;3561553;39;113921;-69
2021/04/16 03:37:10;;;;;;;;;5.00;5.00;;;;;;;;3559000;39;113638;-69
2021/04/16 03:39:36;;;;;;;;;5.00;4.00;;;;;;;;3559573;39;113344;-69
2021/04/16 03:42:03;;;;;;;;;7.33;7.00;;;;;;;;3558447;39;112017;-70
2021/04/16 03:44:29;;;;;;;;;7.33;5.67;;;;;;;;3560175;39;114017;-71
2021/04/16 03:46:55;;;;;;;;;7.00;7.00;;;;;;;;3558029;39;114249;-69
2021/04/16 03:49:21;;;;;;;;;6.33;6.33;;;;;;;;3559768;39;112593;-69
2021/04/16 03:51:48;;;;;;;;;7.33;4.00;;;;;;;;3556476;39;112443;-70
2021/04/16 03:54:14;;;;;;;;;8.00;6.33;;;;;;;;3558814;39;113908;-70
2021/04/16 03:56:40;;;;;;;;;8.33;7.00;;;;;;;;3560201;39;112407;-69
2021/04/16 03:59:07;;;;;;;;;5.67;5.67;;;;;;;;3559268;39;114253;-70
2021/04/16 04:01:33;;;;;;;;;7.00;5.00;;;;;;;;3558505;39;111979;-69
2021/04/16 04:03:59;;;;;;;;;6.33;6.33;;;;;;;;3560401;39;113270;-71
2021/04/16 04:06:25;;;;;;;;;7.67;5.67;;;;;;;;3557818;39;114515;-69
2021/04/16 04:08:51;;;;;;;;;5.67;5.00;;;;;;;;3559822;39;112471;-70
2021/04/16 04:11:17;;;;;;;;;8.33;7.00;;;;;;;;3558583;39;113218;-69
2021/04/16 04:13:43;;;;;;;;;11.33;7.00;;;;;;;;3558347;39;114055;-69
2021/04/16 04:16:10;;;;;;;;;5.67;4.67;;;;;;;;3562197;39;112064;-68
2021/04/16 04:18:36;;;;;;;;;10.00;8.33;;;;;;;;3556772;39;113140;-69
2021/04/16 04:21:02;;;;;;;;;3.00;1.00;;;;;;;;3556401;39;111984;-69
2021/04/16 04:23:28;;;;;;;;;9.67;6.00;;;;;;;;3558333;39;113244;-69
2021/04/16 04:25:54;;;;;;;;;6.00;6.00;;;;;;;;3559755;39;114904;-70
2021/04/16 04:28:21;;;;;;;;;7.00;5.00;;;;;;;;3558368;39;112531;-70
2021/04/16 04:30:47;;;;;;;;;0.00;0.00;;;;;;;;3559671;39;113373;-70
2021/04/16 04:33:14;;;;;;;;;10.00;6.00;;;;;;;;3558856;39;113831;-70
2021/04/16 04:35:41;;;;;;;;;7.00;6.00;;;;;;;;3559367;39;111760;-69
2021/04/16 04:38:07;;;;;;;;;9.67;5.33;;;;;;;;3559320;39;112528;-70
2021/04/16 04:40:33;;;;;;;;;7.00;7.00;;;;;;;;3559825;39;111921;-68
2021/04/16 04:42:59;;;;;;;;;6.67;6.33;;;;;;;;3558280;39;113357;-68
2021/04/16 04:45:25;;;;;;;;;10.67;10.67;;;;;;;;3558093;39;114000;-69
2021/04/16 04:47:52;;;;;;;;;10.00;10.00;;;;;;;;3559593;39;112024;-69
2021/04/16 04:50:19;;;;;;;;;12.33;12.33;;;;;;;;3558659;39;113178;-70
2021/04/16 04:52:46;;;;;;;;;8.00;8.00;;;;;;;;3559009;39;114000;-68
2021/04/16 04:55:13;;;;;;;;;12.00;10.67;;;;;;;;3559148;39;112336;-69
2021/04/16 04:57:40;;;;;;;;;9.00;9.00;;;;;;;;3558880;39;113399;-68
2021/04/16 05:00:07;;;;;;;;;16.67;11.33;;;;;;;;3561776;39;113966;-69
2021/04/16 05:02:33;;;;;;;;;9.33;9.00;;;;;;;;3558265;39;114267;-70
2021/04/16 05:04:59;;;;;;;;;8.00;8.00;;;;;;;;3559515;39;114021;-71
2021/04/16 05:07:26;;;;;;;;;12.33;9.33;;;;;;;;3556197;39;111799;-70
2021/04/16 05:09:52;;;;;;;;;8.33;8.33;;;;;;;;3559681;39;113661;-70
2021/04/16 05:12:19;;;;;;;;;21.33;20.67;;;;;;;;3558072;39;113836;-69
2021/04/16 05:14:45;;;;;;;;;21.75;21.50;;;;;;;;3559117;39;112276;-69
2021/04/16 05:17:11;;;;;;;;;13.33;9.33;;;;;;;;3558764;39;113583;-69
2021/04/16 05:19:37;;;;;;;;;12.00;9.33;;;;;;;;3558797;39;113874;-70
2021/04/16 05:22:05;;;;;;;;;17.67;13.00;;;;;;;;3560857;39;111942;-69
2021/04/16 05:24:32;;;;;;;;;10.00;9.00;;;;;;;;3559846;39;114005;-70
2021/04/16 05:26:59;;;;;;;;;12.33;12.33;;;;;;;;3555206;39;111782;-70
2021/04/16 05:29:25;;;;;;;;;15.33;14.00;;;;;;;;3551719;39;112954;-68
2021/04/16 05:31:51;;;;;;;;;15.33;12.00;;;;;;;;3559031;39;114100;-69
2021/04/16 05:34:17;;;;;;;;;19.00;12.00;;;;;;;;3558242;39;112477;-68
2021/04/16 05:36:43;;;;;;;;;10.00;8.33;;;;;;;;3558734;39;113410;-70
2021/04/16 05:39:09;;;;;;;;;12.67;12.33;;;;;;;;3553418;39;113038;-69
2021/04/16 05:41:36;;;;;;;;;14.67;13.00;;;;;;;;3559050;39;111988;-67
2021/04/16 05:44:02;;;;;;;;;22.33;20.67;;;;;;;;3556851;39;113805;-69
2021/04/16 05:46:28;;;;;;;;;17.33;17.33;;;;;;;;3559501;39;112005;-70
2021/04/16 05:48:54;;;;;;;;;16.67;15.33;;;;;;;;3555377;39;114793;-68
2021/04/16 05:51:20;;;;;;;;;20.00;16.33;;;;;;;;3557371;39;114390;-69
2021/04/16 05:53:47;;;;;;;;;17.33;14.00;;;;;;;;3557806;39;112142;-68
2021/04/16 05:56:13;;;;;;;;;14.00;13.00;;;;;;;;3558515;39;113339;-68
2021/04/16 05:58:40;;;;;;;;;21.67;17.00;;;;;;;;3558166;39;113718;-67
2021/04/16 06:01:07;;;;;;;;;15.33;14.00;;;;;;;;3558003;39;112376;-67
2021/04/16 06:03:33;;;;;;;;;17.00;16.00;;;;;;;;3559061;39;114163;-70
2021/04/16 06:05:59;;;;;;;;;10.00;10.00;;;;;;;;3559542;39;111977;-69
2021/04/16 06:08:25;;;;;;;;;16.33;13.67;;;;;;;;3557182;39;113497;-72
2021/04/16 06:10:52;;;;;;;;;14.67;14.67;;;;;;;;3558640;39;114165;-72
2021/04/16 06:13:18;;;;;;;;;16.33;16.00;;;;;;;;3556804;39;113774;-71
2021/04/16 06:15:45;;;;;;;;;18.00;14.00;;;;;;;;3557907;39;113260;-69
2021/04/16 06:18:11;;;;;;;;;17.00;14.00;;;;;;;;3555865;39;114366;-71
2021/04/16 06:20:37;;;;;;;;;19.00;17.33;;;;;;;;3556824;39;112202;-73
2021/04/16 06:23:03;;;;;;;;;17.00;14.00;;;;;;;;3554182;39;113266;-72
2021/04/16 06:25:31;;;;;;;;;16.00;13.33;;;;;;;;3559739;39;114169;-71
2021/04/16 06:27:57;;;;;;;;;17.00;16.00;;;;;;;;3555875;39;113488;-68
2021/04/16 06:30:24;;;;;;;;;13.00;11.00;;;;;;;;3553458;39;113808;-71
2021/04/16 06:33:00;;;;;;;;;12.00;9.67;;;;;;;;3558082;39;112290;-72
2021/04/16 06:35:26;;;;;;;;;15.67;11.00;;;;;;;;3554593;39;113269;-74
2021/04/16 06:37:52;;;;;;;;;11.67;11.00;;;;;;;;3559894;39;113829;-76
2021/04/16 06:40:18;;;;;;;;;14.67;13.00;;;;;;;;3558725;39;112889;-76
2021/04/16 06:42:46;;;;;;;;;13.00;13.00;;;;;;;;3559845;39;113584;-74
2021/04/16 06:45:14;;;;;;;;;14.00;13.33;;;;;;;;3558755;39;114257;-75
2021/04/16 06:47:43;;;;;;;;;17.33;14.67;;;;;;;;3563479;39;111840;-70
2021/04/16 06:50:13;;;;;;;;;15.67;15.00;;;;;;;;3558715;39;113301;-69
2021/04/16 06:52:41;;;;;;;;;14.67;14.00;;;;;;;;3559729;39;111875;-70
2021/04/16 06:55:11;;;;;;;;;16.00;14.00;;;;;;;;3559151;39;113520;-69
2021/04/16 06:57:40;;;;;;;;;17.33;15.67;;;;;;;;3556633;39;114219;-68
2021/04/16 07:00:13;;;;;;;;;17.67;17.00;;;;;;;;3558306;39;111962;-70
2021/04/16 07:02:43;;;;;;;;;15.00;15.00;;;;;;;;3558871;39;113146;-69
2021/04/16 07:05:13;;;;;;;;;22.00;20.00;;;;;;;;3558253;39;113832;-72
2021/04/16 07:07:40;;;;;;;;;14.67;12.33;;;;;;;;3557902;39;112097;-72
2021/04/16 07:10:09;;;;;;;;;19.67;15.33;;;;;;;;3560335;39;113298;-70
2021/04/16 07:12:36;;;;;;;;;16.67;14.33;;;;;;;;3559404;39;112246;-74
2021/04/16 07:15:07;;;;;;;;;18.00;14.33;;;;;;;;3557762;39;113311;-75
2021/04/16 07:17:38;;;;;;;;;19.00;16.33;;;;;;;;3558773;39;114547;-73
2021/04/16 07:20:04;;;;;;;;;15.00;14.00;;;;;;;;3558116;39;111881;-75
2021/04/16 07:22:37;;;;;;;;;14.67;13.67;;;;;;;;3559516;39;113639;-74
2021/04/16 07:25:12;;;;;;;;;15.00;15.00;;;;;;;;3557686;39;113832;-75
2021/04/16 07:27:46;;;;;;;;;13.33;13.33;;;;;;;;3557462;39;112157;-77
2021/04/16 07:30:25;;;;;;;;;10.67;10.00;;;;;;;;3558641;39;113378;-74
2021/04/16 07:32:51;;;;;;;;;10.67;10.00;;;;;;;;3559257;39;112992;-71
2021/04/16 07:35:19;;;;;;;;;15.33;11.33;;;;;;;;3558625;39;114432;-68
2021/04/16 07:37:47;;;;;;;;;16.67;12.33;;;;;;;;3559200;39;113858;-69
2021/04/16 07:40:22;;;;;;;;;11.67;11.67;;;;;;;;3558620;39;112585;-71
2021/04/16 07:42:49;;;;;;;;;10.00;10.00;;;;;;;;3559534;39;113356;-71
2021/04/16 07:45:32;;;;;;;;;11.00;10.00;;;;;;;;3557695;39;113926;-69
2021/04/16 07:48:13;;;;;;;;;10.33;10.33;;;;;;;;3555430;39;112177;-70
2021/04/16 07:50:41;;;;;;;;;8.00;8.00;;;;;;;;3557202;39;113299;-71
2021/04/16 07:53:25;;;;;;;;;12.00;9.33;;;;;;;;3558403;39;114122;-71
2021/04/16 07:56:03;;;;;;;;;9.33;9.33;;;;;;;;3561781;39;112051;-70
2021/04/16 07:58:29;;;;;;;;;10.25;10.00;;;;;;;;3555570;39;114369;-69
2021/04/16 08:00:55;;;;;;;;;10.00;10.00;;;;;;;;3555331;39;112277;-70
2021/04/16 08:03:23;;;;;;;;;11.00;9.00;;;;;;;;3557452;39;114389;-71
2021/04/16 08:05:50;;;;;;;;;8.75;8.00;;;;;;;;3557498;39;112976;-71
2021/04/16 08:08:25;;;;;;;;;4.75;4.75;;;;;;;;3560358;39;112507;-71
2021/04/16 08:10:52;;;;;;;;;4.00;4.00;;;;;;;;3559142;39;113344;-70
2021/04/16 08:13:19;;;;;;;;;3.25;3.25;;;;;;;;3561464;39;113871;-71
2021/04/16 08:15:45;;;;;;;;;2.00;2.00;;;;;;;;3564194;39;112064;-71
2021/04/16 08:18:13;;;;;;;;;3.00;3.00;;;;;;;;3558941;39;114603;-69
2021/04/16 08:20:47;;;;;;;;;4.50;3.50;;;;;;;;3561777;39;112019;-67
2021/04/16 08:23:15;;;;;;;;;4.00;3.00;;;;;;;;3559692;39;113211;-68
2021/04/16 08:25:45;;;;;;;;;2.00;2.00;;;;;;;;3561078;39;114378;-70
2021/04/16 08:28:15;;;;;;;;;2.50;2.00;;;;;;;;3559437;39;112564;-71
2021/04/16 08:30:44;;;;;;;;;4.00;2.75;;;;;;;;3560682;39;113443;-71
2021/04/16 08:33:15;;;;;;;;;3.00;3.00;;;;;;;;3559201;39;112971;-70
2021/04/16 08:35:44;;;;;;;;;4.00;3.00;;;;;;;;3558459;39;113071;-70
2021/04/16 08:38:13;;;;;;;;;1.67;1.67;;;;;;;;3563700;39;113361;-70
2021/04/16 08:40:41;;;;;;;;;0.67;0.33;;;;;;;;3561965;39;111879;-71
2021/04/16 08:43:11;;;;;;;;;2.67;1.00;;;;;;;;3622826;22;113594;-73
2021/04/16 08:45:40;;;;;;;;;2.33;2.33;;;;;;;;3536125;39;115044;-73
2021/04/16 08:48:13;;;;;;;;;3.33;3.00;;;;;;;;3534347;39;112783;-74
2021/04/16 08:50:41;;;;;;;;;2.00;2.00;;;;;;;;3538619;39;113675;-75
2021/04/16 08:53:07;;;;;;;;;1.33;1.33;;;;;;;;3536665;39;113972;-77
2021/04/16 08:55:35;;;;;;;;;1.33;1.00;;;;;;;;3538561;39;113216;-76
2021/04/16 08:58:02;;;;;;;;;2.00;2.00;;;;;;;;3536982;39;113927;-73
2021/04/16 09:00:32;;;;;;;;;1.33;1.33;;;;;;;;3539160;39;113897;-77
2021/04/16 09:02:59;;;;;;;;;2.00;2.00;;;;;;;;3534981;39;113809;-73
2021/04/16 09:05:26;;;;;;;;;1.00;1.00;;;;;;;;3538369;39;113775;-80
2021/04/16 09:07:56;;;;;;;;;1.00;1.00;;;;;;;;3537304;39;112300;-75
2021/04/16 09:10:38;;;;;;;;;2.00;2.00;;;;;;;;3538076;39;113634;-73
2021/04/16 09:13:05;;;;;;;;;1.67;1.00;;;;;;;;3534829;39;113643;-72
2021/04/16 09:15:40;;;;;;;;;2.67;2.00;;;;;;;;3538720;39;111774;-71
2021/04/16 09:18:22;;;;;;;;;3.00;3.00;;;;;;;;3537186;39;113458;-72
2021/04/16 09:21:07;;;;;;;;;3.00;2.00;;;;;;;;3535774;39;113805;-71
2021/04/16 09:23:52;;;;;;;;;2.33;2.00;;;;;;;;3538128;39;113161;-72
2021/04/16 09:26:50;;;;;;;;;1.33;1.33;;;;;;;;3536732;39;114322;-72
2021/04/16 09:29:20;;;;;;;;;1.00;1.00;;;;;;;;3536748;39;111909;-72
2021/04/16 09:31:57;;;;;;;;;1.67;1.00;;;;;;;;3536136;39;113212;-72
2021/04/16 09:34:25;;;;;;;;;1.00;1.00;;;;;;;;3533258;39;113870;-71
2021/04/16 09:36:53;;;;;;;;;2.00;2.00;;;;;;;;3533076;39;112000;-71
2021/04/16 09:39:33;;;;;;;;;2.00;1.67;;;;;;;;3533727;39;113554;-70
2021/04/16 09:41:59;;;;;;;;;1.00;1.00;;;;;;;;3532183;39;113834;-71
2021/04/16 09:44:55;;;;;;;;;1.33;1.33;;;;;;;;3534373;39;112267;-73
2021/04/16 09:47:40;;;;;;;;;1.00;1.00;;;;;;;;3539836;39;113269;-71
2021/04/16 09:50:19;;;;;;;;;4.00;2.67;;;;;;;;3535425;39;111806;-71
2021/04/16 09:53:02;;;;;;;;;1.00;1.00;;;;;;;;3537254;39;113378;-72
2021/04/16 09:55:46;;;;;;;;;1.67;1.67;;;;;;;;3534003;39;113992;-76
2021/04/16 09:58:13;;;;;;;;;2.00;2.00;;;;;;;;3534485;39;113347;-78
2021/04/16 10:01:02;;;;;;;;;0.00;0.00;;;;;;;;3537685;39;113489;-77
2021/04/16 10:03:40;;;;;;;;;1.00;1.00;;;;;;;;3534078;39;113900;-78
2021/04/16 10:06:19;;;;;;;;;2.00;2.00;;;;;;;;3535758;39;111800;-76
2021/04/16 10:08:46;;;;;;;;;1.00;1.00;;;;;;;;3536924;39;113609;-73
2021/04/16 10:11:13;;;;;;;;;2.00;2.00;;;;;;;;3539510;39;114046;-71
2021/04/16 10:13:40;;;;;;;;;1.00;1.00;;;;;;;;3538953;39;113367;-76
2021/04/16 10:16:18;;;;;;;;;1.67;1.67;;;;;;;;3537484;39;114041;-73
2021/04/16 10:18:44;;;;;;;;;3.00;2.00;;;;;;;;3532546;39;112540;-76
2021/04/16 10:21:26;;;;;;;;;1.67;1.00;;;;;;;;3538548;39;113238;-83
2021/04/16 10:24:23;;;;;;;;;1.00;1.00;;;;;;;;3537903;39;114312;-77
2021/04/16 12:39:05;;;;;;;;;4.00;4.00;;;;;;;;3536292;39;111968;-78
2021/04/16 12:41:32;;;;;;;;;6.00;4.00;;;;;;;;3534320;39;111926;-72
2021/04/16 12:44:00;;;;;;;;;5.00;5.00;;;;;;;;3529204;39;113398;-73
2021/04/16 12:46:31;;;;;;;;;5.00;4.00;;;;;;;;3534723;39;114335;-73
2021/04/16 12:48:57;;;;;;;;;5.50;3.00;;;;;;;;3530998;39;113611;-75
2021/04/16 12:51:23;;;;;;;;;4.25;4.25;;;;;;;;3534468;39;113676;-78
2021/04/16 12:53:49;;;;;;;;;4.00;4.00;;;;;;;;3531525;39;114128;-73
2021/04/16 12:56:17;;;;;;;;;3.50;3.25;;;;;;;;3532008;39;113026;-73
2021/04/16 12:58:44;;;;;;;;;3.75;3.00;;;;;;;;3531979;39;113305;-73
2021/04/16 13:01:15;;;;;;;;;4.25;3.00;;;;;;;;3530328;39;113727;-73
2021/04/16 13:03:42;;;;;;;;;5.00;5.00;;;;;;;;3530022;39;113453;-72
2021/04/16 13:06:15;;;;;;;;;4.75;4.75;;;;;;;;3534837;39;114118;-73
2021/04/16 13:08:41;;;;;;;;;6.25;3.75;;;;;;;;3535988;39;112218;-72
2021/04/16 13:11:07;;;;;;;;;5.00;5.00;;;;;;;;3531876;39;113752;-72
2021/04/16 13:13:34;;;;;;;;;6.25;6.25;;;;;;;;3533898;39;117067;-74
2021/04/16 13:16:00;;;;;;;;;4.50;4.00;;;;;;;;3537694;39;112219;-72
2021/04/16 13:18:28;;;;;;;;;5.50;4.50;;;;;;;;3534128;39;113349;-73
2021/04/16 13:20:54;;;;;;;;;4.75;4.75;;;;;;;;3536757;39;114620;-77
2021/04/16 13:23:21;;;;;;;;;4.00;4.00;;;;;;;;3536227;39;113344;-78
2021/04/16 13:25:47;;;;;;;;;4.25;4.00;;;;;;;;3535364;39;113905;-72
2021/04/16 13:28:13;;;;;;;;;2.00;2.00;;;;;;;;3532676;39;112028;-72
2021/04/16 13:30:40;;;;;;;;;3.50;2.00;;;;;;;;3530077;39;113898;-72
2021/04/16 13:33:10;;;;;;;;;4.25;4.25;;;;;;;;3534646;39;115960;-72
2021/04/16 13:35:37;;;;;;;;;5.00;5.00;;;;;;;;3536503;39;111887;-72
2021/04/16 13:38:04;;;;;;;;;4.00;4.00;;;;;;;;3536478;39;114059;-71
2021/04/16 13:40:31;;;;;;;;;6.50;5.00;;;;;;;;3534278;39;114048;-71
2021/04/16 13:42:58;;;;;;;;;5.00;5.00;;;;;;;;3538108;39;111942;-70
2021/04/16 13:45:24;;;;;;;;;3.00;3.00;;;;;;;;3536520;39;113932;-72
2021/04/16 13:47:50;;;;;;;;;5.00;4.00;;;;;;;;3536940;39;112918;-70
2021/04/16 13:50:17;;;;;;;;;3.00;3.00;;;;;;;;3536613;39;113849;-71
2021/04/16 13:52:44;;;;;;;;;4.50;4.50;;;;;;;;3537858;39;114604;-71
2021/04/16 13:55:12;;;;;;;;;3.75;3.75;;;;;;;;3535862;39;113226;-71
2021/04/16 13:57:38;;;;;;;;;3.75;3.75;;;;;;;;3539261;39;113194;-70
2021/04/16 14:00:05;;;;;;;;;4.25;4.25;;;;;;;;3538604;39;114527;-71
2021/04/16 14:02:33;;;;;;;;;4.75;4.00;;;;;;;;3538665;39;111925;-71
2021/04/16 14:05:01;;;;;;;;;4.50;4.00;;;;;;;;3541374;39;113430;-71
2021/04/16 14:07:27;;;;;;;;;3.25;3.25;;;;;;;;3537778;39;111756;-72
2021/04/16 14:09:53;;;;;;;;;5.00;3.00;;;;;;;;3536534;39;113193;-72
2021/04/16 14:12:20;;;;;;;;;4.50;4.50;;;;;;;;3536936;39;113927;-71
2021/04/16 14:14:46;;;;;;;;;4.25;3.00;;;;;;;;3538674;39;112486;-71
2021/04/16 14:17:13;;;;;;;;;4.00;4.00;;;;;;;;3537702;39;113458;-69
2021/04/16 14:19:42;;;;;;;;;7.00;5.00;;;;;;;;3537499;39;114129;-71
2021/04/16 14:22:12;;;;;;;;;4.00;4.00;;;;;;;;3538359;39;111931;-71
2021/04/16 14:24:38;;;;;;;;;3.75;3.75;;;;;;;;3538745;39;114568;-72
2021/04/16 14:27:04;;;;;;;;;3.25;3.25;;;;;;;;3540933;39;113666;-73
2021/04/16 14:29:30;;;;;;;;;4.00;4.00;;;;;;;;3537995;39;113657;-72
2021/04/16 14:31:56;;;;;;;;;4.75;3.00;;;;;;;;3536259;39;113768;-72
2021/04/16 14:34:25;;;;;;;;;5.75;4.75;;;;;;;;3533358;39;112199;-72
2021/04/16 14:36:51;;;;;;;;;4.00;3.00;;;;;;;;3539712;39;113508;-71
2021/04/16 14:39:18;;;;;;;;;5.00;3.75;;;;;;;;3536435;39;113958;-73
2021/04/16 14:41:44;;;;;;;;;3.50;3.50;;;;;;;;3538823;39;112172;-72
2021/04/16 14:44:14;;;;;;;;;6.00;6.00;;;;;;;;3538959;39;113659;-72
2021/04/16 14:46:41;;;;;;;;;6.75;4.00;;;;;;;;3538430;39;113914;-72
2021/04/16 14:49:07;;;;;;;;;5.00;4.00;;;;;;;;3541444;39;111733;-73
2021/04/16 14:51:33;;;;;;;;;5.00;5.00;;;;;;;;3537895;39;114735;-73
2021/04/16 14:54:00;;;;;;;;;4.50;4.50;;;;;;;;3538825;39;112164;-71
2021/04/16 14:56:28;;;;;;;;;5.00;5.00;;;;;;;;3537255;39;113446;-71
2021/04/16 14:58:58;;;;;;;;;3.75;3.00;;;;;;;;3534675;39;113971;-73
2021/04/16 15:01:25;;;;;;;;;5.00;5.00;;;;;;;;3532883;39;112461;-71
2021/04/16 15:03:51;;;;;;;;;4.75;3.75;;;;;;;;3537010;39;113399;-72
2021/04/16 15:06:18;;;;;;;;;5.50;3.00;;;;;;;;3535928;39;114914;-72
2021/04/16 15:08:46;;;;;;;;;5.00;4.50;;;;;;;;3540253;39;111878;-73
2021/04/16 15:11:14;;;;;;;;;4.00;4.00;;;;;;;;3538488;39;113909;-74
2021/04/16 15:13:41;;;;;;;;;4.00;4.00;;;;;;;;3538796;39;111982;-73
2021/04/16 15:16:09;;;;;;;;;4.75;4.00;;;;;;;;3538126;39;113320;-71
2021/04/16 15:18:35;;;;;;;;;4.25;4.00;;;;;;;;3538442;39;113948;-72
2021/04/16 15:21:02;;;;;;;;;4.00;4.00;;;;;;;;3537955;39;112058;-72
2021/04/16 15:23:28;;;;;;;;;3.00;3.00;;;;;;;;3539352;39;113480;-71
2021/04/16 15:25:55;;;;;;;;;4.00;4.00;;;;;;;;3535251;39;114674;-72
2021/04/16 15:28:24;;;;;;;;;4.25;4.25;;;;;;;;3537529;39;112690;-75
2021/04/16 15:30:54;;;;;;;;;4.25;4.00;;;;;;;;3541517;39;113679;-72
2021/04/16 15:33:22;;;;;;;;;3.50;3.50;;;;;;;;3537803;39;111879;-72
2021/04/16 15:46:54;;;;;;;;;5.75;4.25;;;;;;;;3539953;39;112379;-76
2021/04/16 15:49:20;;;;;;;;;4.75;4.75;;;;;;;;3538149;39;111983;-74
2021/04/16 15:51:46;;;;;;;;;5.50;4.25;;;;;;;;3539554;39;114718;-80
2021/04/16 15:54:13;;;;;;;;;3.75;1.50;;;;;;;;3537867;39;113841;-75
2021/04/16 15:56:40;;;;;;;;;5.00;5.00;;;;;;;;3535904;39;112105;-82
2021/04/16 15:59:10;;;;;;;;;6.00;4.25;;;;;;;;3536329;39;113954;-73
2021/04/16 16:01:36;;;;;;;;;4.75;4.75;;;;;;;;3540353;39;112733;-78
2021/04/16 16:04:03;;;;;;;;;5.00;5.00;;;;;;;;3539422;39;114098;-75
2021/04/16 16:06:30;;;;;;;;;8.75;5.00;;;;;;;;3537780;39;114430;-76
2021/04/16 16:08:57;;;;;;;;;5.00;4.25;;;;;;;;3539313;39;111999;-74
2021/04/16 16:11:25;;;;;;;;;4.50;4.00;;;;;;;;3538247;39;113212;-78
2021/04/16 16:13:53;;;;;;;;;5.25;5.00;;;;;;;;3538045;39;113981;-78
2021/04/16 16:16:22;;;;;;;;;5.25;5.00;;;;;;;;3542724;39;111935;-84
2021/04/16 16:18:52;;;;;;;;;5.00;4.25;;;;;;;;3538103;39;113361;-75
2021/04/16 16:21:19;;;;;;;;;5.75;5.25;;;;;;;;3539341;39;112021;-76
2021/04/16 16:23:46;;;;;;;;;4.75;4.75;;;;;;;;3543181;39;113282;-86
2021/04/16 16:26:15;;;;;;;;;5.75;4.25;;;;;;;;3542454;39;114891;-89
2021/04/16 16:28:41;;;;;;;;;3.75;3.75;;;;;;;;3539863;39;113529;-77
2021/04/16 16:31:07;;;;;;;;;6.00;6.00;;;;;;;;3538089;39;113339;-79
2021/04/16 16:33:33;;;;;;;;;5.00;4.00;;;;;;;;3537312;39;114243;-75
2021/04/16 16:36:00;;;;;;;;;4.75;4.75;;;;;;;;3538617;39;111793;-72
2021/04/16 16:38:27;;;;;;;;;5.50;5.50;;;;;;;;3539680;39;113386;-70
2021/04/16 16:40:55;;;;;;;;;4.00;4.00;;;;;;;;3535182;39;111889;-72
2021/04/16 16:43:24;;;;;;;;;5.00;5.00;;;;;;;;3539313;39;113782;-74
2021/04/16 16:45:51;;;;;;;;;4.00;4.00;;;;;;;;3537122;39;113895;-70
2021/04/16 16:48:17;;;;;;;;;4.00;4.00;;;;;;;;3535390;39;112825;-75
2021/04/16 16:50:45;;;;;;;;;4.75;4.75;;;;;;;;3536042;39;113763;-76
2021/04/16 16:53:15;;;;;;;;;5.25;4.75;;;;;;;;3535063;39;113876;-71